Portada
METAR-TAF:

METAR-TAF

Aeropuertos :

Aeropuerto Internacional Osvaldo Vieira

Bissau, Guinea-Bissau

latitud: 11-53N, longitud: 015-39W, altitud: 39 m

Observación

El informe se hizo hace 58 minutos, a las 13:00 UTC
Viento 5 kt del este, variando entre noreste y este-sureste
Temperatura 30°C
Humedad 66%
Presión 1013 hPa
Visibilidad 10 km o más
Nubes dispersas a una altura de 1500 ft

METAR: GGOV 141300Z 08005KT 040V110 9999 SCT015 30/23 Q1013 NOSIG

Hora: 13:58 (13:58 UTC)

Pronóstico

El informe se hizo hace 2 horas y 58 minutos, a las 11:00 UTC
Pronóstico válido del 14 a las 12 UTC al 15 a las 12 UTC
Viento 5 kt del sur-suroeste
Visibilidad: 8000 m
Nubes dispersas a una altura de 1200 ft
Probabilidad 30% :
Temporalmente
del 14 a las 17 UTC al 14 a las 21 UTC
Visibilidad: 4000 m
Cielo nuboso a una altura de 1000 ft
lluvia,

TAF: GGOV 141100Z 1412/1512 20005KT 8000 SCT012 PROB30 TEMPO 1417/1421 4000 RA BKN010

Observaciones y pronósticos meteorológicos de más de 4000 aeropuertos (mensajes METAR y TAF).

Los puntos amarillos y rojos representan las estaciones disponibles.

Ponga el ratón en el punto deseado para ver el nombre de la estación.

Haga clic para ver las observaciones y los pronósticos meteorológicos.

Para cambiar el mapa : haga clic en los botones verdes con una cruz de color negro para hacer un zoom, en el botón verde con un guión para alejar o en las flechas verdes para mapas adyacentes.


METAR-TAF: